Flight Track Log - Related Links

Times and Time Zones

All times are in EDT time to prevent confusion due to time zone crossing. See the LAK145 flight status page for this flight to view local times or setup timezone preferences in your user account.

Time Position Orientation Groundspeed Altitude Reporting Facility
EDT Latitude Longitude Course Direction KTS MPH feet Rate Location/Type
Sun 04:07:09 PM 43.5786 -110.7519 136° Southeast 150 173 8,900  Level Salt Lake Center
Sun 04:08:11 PM 43.5258 -110.7897 207° Southwest 207 238 12,800 4,293 Climbing Salt Lake Center
Sun 04:09:12 PM 43.4386 -110.7950 183° South 297 342 17,700 3,805 Climbing Salt Lake Center
Sun 04:10:00 PM 43.1496 -110.8996 140° Southeast  Level FlightAware Approximate
Sun 04:10:14 PM 43.3675 -110.7250 144° Southeast 327 376 20,600  Level Salt Lake Center
Sun 04:11:00 PM 43.0840 -110.8229 140° Southeast  Level FlightAware Approximate
Sun 04:11:16 PM 43.2853 -110.6481 146° Southeast 370 426 22,600  Level Salt Lake Center
Sun 04:12:00 PM 43.0202 -110.7435 136° Southeast  Level FlightAware Approximate
Sun 04:12:18 PM 43.1847 -110.5458 143° Southeast 398 458 25,300  Level Salt Lake Center
Sun 04:13:20 PM 43.0978 -110.4619 145° Southeast 400 460 27,500 2,341 Climbing Salt Lake Center
Sun 04:14:21 PM 42.9947 -110.3639 145° Southeast 402 463 30,100 2,244 Climbing Salt Lake Center
Sun 04:15:23 PM 42.9100 -110.2756 143° Southeast 402 463 32,100 1,887 Climbing Salt Lake Center
Sun 04:16:25 PM 42.8075 -110.1756 144° Southeast 404 465 34,000 1,694 Climbing Salt Lake Center
Sun 04:17:27 PM 42.7189 -110.0933 146° Southeast 404 465 35,600 1,452 Climbing Salt Lake Center
Sun 04:18:29 PM 42.6219 -109.9964 144° Southeast 393 452 37,000 683 Climbing Salt Lake Center
Sun 04:19:30 PM 42.5328 -109.9117 145° Southeast 404 465 37,000  Level Salt Lake Center
Sun 04:20:32 PM 42.4194 -109.8072 146° Southeast 435 501 37,000  Level Salt Lake Center
Sun 04:21:34 PM 42.3239 -109.7086 143° Southeast 445 512 37,000  Level Salt Lake Center
Sun 04:22:36 PM 42.2242 -109.6153 145° Southeast 452 520 37,000  Level Salt Lake Center
Sun 04:23:37 PM 42.1086 -109.5025 144° Southeast 456 525 37,000  Level Salt Lake Center
Sun 04:24:39 PM 42.0069 -109.4108 146° Southeast 458 527 37,000  Level Salt Lake Center
Sun 04:25:41 PM 41.8928 -109.2983 144° Southeast 458 527 37,000  Level Salt Lake Center
Sun 04:26:42 PM 41.7922 -109.2064 146° Southeast 458 527 37,000  Level Salt Lake Center
Sun 04:28:21 PM 41.6247 -109.0483 145° Southeast 457 526 37,000  Level Denver Center
Sun 04:29:23 PM 41.5092 -108.9286 142° Southeast 459 528 37,000  Level Denver Center
Sun 04:30:25 PM 41.4142 -108.8167 139° Southeast 465 535 37,000  Level Denver Center
Sun 04:31:28 PM 41.3172 -108.7128 141° Southeast 465 535 37,000  Level Denver Center
Sun 04:32:30 PM 41.2072 -108.5897 140° Southeast 462 532 37,000 -290 Level Denver Center
Sun 04:33:32 PM 41.1122 -108.4842 140° Southeast 463 533 36,400 -968 Descending Denver Center
Sun 04:34:34 PM 41.0061 -108.3697 141° Southeast 443 510 35,000 -1,258 Descending Denver Center
Sun 04:35:36 PM 40.9181 -108.2711 140° Southeast 435 501 33,800 -1,306 Descending Denver Center
Sun 04:36:38 PM 40.8125 -108.1581 141° Southeast 435 501 32,300 -1,355 Descending Denver Center
Sun 04:37:40 PM 40.7186 -108.0547 140° Southeast 436 502 31,000 -1,161 Descending Denver Center
Sun 04:38:42 PM 40.6247 -107.9547 141° Southeast 446 513 29,900 -1,258 Descending Denver Center
Sun 04:39:44 PM 40.5150 -107.8369 141° Southeast 450 518 28,400 -1,306 Descending Denver Center
Sun 04:40:46 PM 40.4236 -107.7356 140° Southeast 450 518 27,200 -1,258 Descending Denver Center
Sun 04:41:48 PM 40.3136 -107.6214 142° Southeast 450 518 25,800 -1,258 Descending Denver Center
Sun 04:42:50 PM 40.2219 -107.5236 141° Southeast 447 514 24,600 -1,258 Descending Denver Center
Sun 04:43:52 PM 40.1242 -107.4192 141° Southeast 408 470 23,200 -1,306 Descending Denver Center
Sun 04:44:54 PM 40.0861 -107.2925 111° Southeast 405 466 21,900 -1,306 Descending Denver Center
Sun 04:45:56 PM 40.0697 -107.1397 98° East 371 427 20,500 -1,210 Descending Denver Center
Sun 04:46:58 PM 40.0600 -107.0258 96° East 351 404 19,400 -726 Descending Denver Center
Sun 04:48:00 PM 40.0583 -106.9042 91° East 338 389 19,000 -194 Descending Denver Center
Sun 04:49:02 PM 40.0792 -106.7883 77° East 327 376 19,000  Level Denver Center
Sun 04:50:04 PM 40.1011 -106.6714 76° East 328 377 19,000 -629 Level Denver Center
Sun 04:51:06 PM 40.1283 -106.5256 76° East 340 391 17,700 -968 Descending Denver Center
Sun 04:52:08 PM 40.1514 -106.4111 75° East 329 379 17,000 -339 Descending Denver Center
Sun 04:53:10 PM 40.1569 -106.3025 86° East 320 368 17,000  Level Denver Center
Sun 04:54:12 PM 40.1111 -106.2025 121° Southeast 324 373 17,000 -484 Level Denver Center
Sun 04:55:14 PM 40.0403 -106.1231 139° Southeast 333 383 16,000 -484 Descending Denver Center
Sun 04:56:16 PM 40.0119 -106.1842 239° Southwest 254 292 16,000 -290 Level Denver Center
Sun 04:57:18 PM 40.0044 -106.2603 263° West 228 262 15,400 -919 Descending Denver Center
Sun 04:58:20 PM 39.9953 -106.3339 261° West 214 246 14,100 -726 Descending Denver Center
Sun 04:59:22 PM 39.9786 -106.4378 258° West 233 268 13,900 -145 Descending Denver Center
Sun 05:00:24 PM 39.9083 -106.4772 203° Southwest 260 299 13,800 -48 Descending Denver Center
Sun 05:01:26 PM 39.8500 -106.5033 199° South 239 275 13,800  Level Denver Center
Sun 05:02:28 PM 39.7997 -106.5292 202° Southwest 201 231 13,800 -435 Level Denver Center
Sun 05:03:30 PM 39.7358 -106.5536 196° South 222 255 12,900 -629 Descending Denver Center
Sun 05:04:32 PM 39.6939 -106.5878 212° Southwest 192 221 12,500 -532 Descending Denver Center
Sun 05:05:34 PM 39.6833 -106.6539 258° West 190 219 11,800 -1,065 Descending Denver Center
Sun 05:06:36 PM 39.6697 -106.7175 254° West 188 216 10,300 -1,452 Descending Denver Center
Sun 05:07:38 PM 39.6603 -106.7808 259° West 153 176 8,800 -1,161 Descending Denver Center
Sun 05:08:40 PM 39.6522 -106.8267 257° West 138 159 7,900 -774 Descending Denver Center
Sun 05:09:42 PM 39.6478 -106.8667 262° West 125 144 7,200 -677 Descending Denver Center

Login

Don't have an account? Register now (free) for customized features, flight alerts, and more!